Time;durP1;ratioP1;P1;durP2;ratioP2;P2;SDS_P1;SDS_P2;PMS_P1;PMS_P2;Temp;Humidity;BMP_temperature;BMP_pressure;BME280_temperature;BME280_humidity;BME280_pressure;Samples;Min_cycle;Max_cycle;Signal;HPM_P1;HPM_P2
2021/06/29 00:00:45;;;;;;;8.65;7.93;;;;;;;20.54;42.33;100765.78;4810215;29;97942;-70
2021/06/29 00:03:15;;;;;;;9.38;8.48;;;;;;;20.51;42.36;100765.78;4825422;29;98370;-70
2021/06/29 00:05:46;;;;;;;10.45;9.50;;;;;;;20.48;42.62;100757.75;4841499;28;98317;-69
2021/06/29 00:08:15;;;;;;;8.88;8.07;;;;;;;20.46;42.88;100759.59;4825799;29;100656;-70
2021/06/29 00:10:43;;;;;;;8.50;7.70;;;;;;;20.43;42.63;100759.66;4827020;29;96865;-70
2021/06/29 00:13:11;;;;;;;8.73;7.97;;;;;;;20.41;43.02;100754.25;4826297;29;97522;-70
2021/06/29 00:15:40;;;;;;;8.98;8.13;;;;;;;20.40;42.74;100751.59;4825478;29;99922;-69
2021/06/29 00:18:08;;;;;;;9.75;8.75;;;;;;;20.35;42.90;100748.09;4828033;29;99162;-71
2021/06/29 00:20:36;;;;;;;9.15;8.45;;;;;;;20.31;43.14;100743.66;4826841;29;98986;-70
2021/06/29 00:23:04;;;;;;;9.52;8.63;;;;;;;20.29;43.37;100751.81;4825762;29;98307;-69
2021/06/29 00:25:33;;;;;;;9.57;8.77;;;;;;;20.25;43.73;100751.91;4827065;29;98114;-70
2021/06/29 00:28:01;;;;;;;9.82;8.93;;;;;;;20.20;43.35;100745.69;4827077;29;97709;-70
2021/06/29 00:30:29;;;;;;;10.77;9.75;;;;;;;20.15;43.78;100751.19;4825099;29;97252;-69
2021/06/29 00:32:57;;;;;;;11.80;10.90;;;;;;;20.13;43.60;100753.03;4824476;29;98035;-69
2021/06/29 00:35:25;;;;;;;11.68;10.73;;;;;;;20.11;43.53;100748.56;4822980;29;97899;-69
2021/06/29 00:37:52;;;;;;;1201.90;902.63;;;;;;;20.06;43.96;100750.47;4822540;29;98625;-69
2021/06/29 00:40:20;;;;;;;949.83;882.88;;;;;;;20.03;44.12;100746.00;4825716;29;97402;-69
2021/06/29 00:42:49;;;;;;;967.83;898.33;;;;;;;20.01;44.20;100739.72;4824977;29;97407;-70
2021/06/29 00:45:17;;;;;;;1999.90;999.90;;;;;;;19.99;44.07;100734.34;4824816;29;97911;-70
2021/06/29 00:47:45;;;;;;;956.95;887.45;;;;;;;19.98;44.11;100731.69;4824079;29;98468;-70
2021/06/29 00:50:15;;;;;;;1182.97;887.25;;;;;;;19.97;44.44;100738.03;4823319;29;97892;-70
2021/06/29 00:52:43;;;;;;;263.48;115.30;;;;;;;19.95;44.54;100731.75;4826145;29;97912;-70
2021/06/29 00:55:13;;;;;;;1999.90;999.90;;;;;;;19.93;44.38;100742.59;4823136;29;99347;-69
2021/06/29 00:57:42;;;;;;;849.03;382.85;;;;;;;19.90;44.34;100731.78;4824960;29;98048;-69
2021/06/29 01:00:13;;;;;;;993.78;291.52;;;;;;;19.88;44.89;100735.47;4826188;29;97225;-69
2021/06/29 01:02:40;;;;;;;1427.45;670.13;;;;;;;19.85;44.85;100739.09;4822646;29;96947;-70
2021/06/29 01:05:09;;;;;;;327.20;267.38;;;;;;;19.81;44.95;100725.66;4826840;29;97790;-70
2021/06/29 01:07:37;;;;;;;69.88;66.45;;;;;;;19.77;45.13;100723.97;4822980;29;97710;-70
2021/06/29 01:10:06;;;;;;;38.63;36.35;;;;;;;19.70;44.95;100736.66;4824333;29;97300;-69
2021/06/29 01:12:34;;;;;;;22.23;20.38;;;;;;;19.61;45.44;100736.81;4824980;29;96949;-69
2021/06/29 01:15:03;;;;;;;31.88;30.00;;;;;;;19.67;45.01;100735.81;4824054;29;98044;-70
2021/06/29 01:17:32;;;;;;;1034.35;512.40;;;;;;;19.66;45.14;100734.91;4823482;29;98847;-69
2021/06/29 01:20:04;;;;;;;1999.90;999.90;;;;;;;19.69;45.35;100732.19;4825490;29;97726;-70
2021/06/29 01:22:32;;;;;;;654.90;618.55;;;;;;;19.61;45.12;100734.09;4824890;29;97673;-69
2021/06/29 01:25:00;;;;;;;781.03;730.53;;;;;;;19.62;45.29;100730.50;4825276;29;100088;-69
2021/06/29 01:32:59;;;;;;;990.65;912.85;;;;;;;19.51;45.30;100727.09;4823255;29;97602;-69
2021/06/29 01:35:28;;;;;;;982.63;906.38;;;;;;;19.53;45.36;100730.66;4825333;29;98340;-69
2021/06/29 01:37:56;;;;;;;988.90;908.17;;;;;;;19.54;45.73;100728.84;4837762;28;97691;-69
2021/06/29 01:40:26;;;;;;;964.15;886.22;;;;;;;19.52;45.65;100727.97;4824115;29;96859;-68
2021/06/29 01:42:56;;;;;;;858.22;795.65;;;;;;;19.50;45.65;100709.09;4824802;29;98441;-69
2021/06/29 01:45:27;;;;;;;968.95;891.17;;;;;;;19.49;45.89;100712.72;4839794;28;100633;-68
2021/06/29 01:47:57;;;;;;;974.35;894.42;;;;;;;19.46;45.84;100717.28;4808153;29;99251;-69
2021/06/29 01:50:25;;;;;;;981.67;900.10;;;;;;;19.35;45.81;100720.16;4825159;29;97638;-69
2021/06/29 01:52:59;;;;;;;962.70;883.58;;;;;;;19.27;46.35;100718.44;4824895;29;97100;-69
2021/06/29 01:55:28;;;;;;;920.17;846.17;;;;;;;19.28;46.25;100712.16;4825123;29;97720;-69
2021/06/29 01:57:58;;;;;;;919.55;845.90;;;;;;;19.30;45.92;100716.59;4823066;29;97748;-69
2021/06/29 02:00:26;;;;;;;927.22;856.60;;;;;;;19.34;46.16;100712.06;4821829;29;96867;-69
2021/06/29 02:02:54;;;;;;;910.30;842.28;;;;;;;19.28;46.07;100710.31;4817927;29;97319;-68
2021/06/29 02:05:22;;;;;;;917.30;848.53;;;;;;;19.29;46.13;100703.13;4823337;29;97748;-70
2021/06/29 02:07:49;;;;;;;792.45;737.97;;;;;;;19.30;45.82;100704.94;4822345;29;98854;-69
2021/06/29 02:10:18;;;;;;;861.55;797.88;;;;;;;19.28;45.68;100701.38;4823984;29;97798;-68
2021/06/29 02:12:46;;;;;;;827.38;768.05;;;;;;;19.20;45.77;100704.19;4823142;29;98016;-69
2021/06/29 02:15:14;;;;;;;798.88;742.42;;;;;;;19.17;45.69;100712.28;4824485;29;98536;-70
2021/06/29 02:17:42;;;;;;;766.28;713.33;;;;;;;19.15;45.80;100727.66;4826500;29;97360;-69
2021/06/29 02:20:12;;;;;;;754.10;703.00;;;;;;;19.06;45.96;100760.16;4823658;29;98121;-70
2021/06/29 02:22:39;;;;;;;709.47;665.33;;;;;;;18.90;46.22;100753.16;4808036;29;97089;-70
2021/06/29 02:25:08;;;;;;;619.22;584.53;;;;;;;18.76;46.07;100747.06;4823177;29;97839;-69
2021/06/29 02:27:37;;;;;;;631.83;596.00;;;;;;;18.62;46.19;100741.78;4822500;29;99000;-69
2021/06/29 02:30:06;;;;;;;625.72;590.65;;;;;;;18.51;46.07;100778.81;4811414;29;97457;-70
2021/06/29 02:32:34;;;;;;;635.38;600.17;;;;;;;18.38;46.29;100778.94;4824677;29;97031;-69
2021/06/29 02:35:03;;;;;;;663.83;626.63;;;;;;;18.31;46.03;100778.13;4825368;29;98917;-69
2021/06/29 02:37:30;;;;;;;914.05;844.50;;;;;;;18.70;45.35;100790.25;4820445;29;97951;-70
2021/06/29 02:39:58;;;;;;;614.63;579.58;;;;;;;18.36;45.64;100791.53;4821061;29;97425;-70
2021/06/29 02:42:26;;;;;;;567.85;538.75;;;;;;;18.22;45.98;100775.53;4822258;29;97215;-69
2021/06/29 02:45:02;;;;;;;581.65;552.22;;;;;;;18.18;45.70;100775.56;4821841;29;100082;-70
2021/06/29 02:47:29;;;;;;;565.78;537.88;;;;;;;18.09;45.66;100800.78;4807945;29;101268;-69
2021/06/29 02:49:57;;;;;;;425.00;406.05;;;;;;;17.98;45.83;100791.88;4823387;29;97461;-70
2021/06/29 02:52:25;;;;;;;1999.90;999.90;;;;;;;17.88;45.90;100793.75;4822555;29;97478;-71
2021/06/29 02:54:53;;;;;;;1999.90;999.90;;;;;;;17.77;45.78;100782.19;4823969;29;97880;-69
2021/06/29 02:57:20;;;;;;;1999.90;999.90;;;;;;;18.19;45.15;100783.63;4821252;29;97661;-70
2021/06/29 02:59:48;;;;;;;1999.90;999.90;;;;;;;17.82;45.94;100780.34;4822856;29;97897;-70
2021/06/29 03:02:17;;;;;;;1999.90;999.90;;;;;;;17.63;46.14;100786.78;4805874;29;96987;-70
2021/06/29 03:04:45;;;;;;;1999.90;999.90;;;;;;;17.51;46.37;100792.25;4808077;29;100782;-69
2021/06/29 03:07:13;;;;;;;1999.90;999.90;;;;;;;17.40;46.49;100782.50;4822138;29;97880;-69
2021/06/29 03:09:41;;;;;;;1999.90;999.90;;;;;;;17.31;46.65;100777.13;4824119;29;97783;-70
2021/06/29 03:12:10;;;;;;;1999.90;999.90;;;;;;;17.23;46.84;100763.72;4824215;29;97048;-71
2021/06/29 03:14:39;;;;;;;1999.90;999.90;;;;;;;17.15;47.18;100773.63;4821691;29;100369;-70
2021/06/29 03:17:07;;;;;;;1999.90;999.90;;;;;;;17.07;47.60;100764.75;4821716;29;99119;-70
2021/06/29 03:19:37;;;;;;;1999.90;999.90;;;;;;;17.03;48.00;100760.28;4823301;29;97296;-70
2021/06/29 03:22:05;;;;;;;1999.90;999.90;;;;;;;16.97;47.86;100765.66;4807894;29;97635;-71
2021/06/29 03:24:33;;;;;;;1999.90;999.90;;;;;;;16.89;48.46;100743.28;4821265;29;100705;-71
2021/06/29 03:27:01;;;;;;;1999.90;999.90;;;;;;;16.84;48.33;100737.06;4837646;28;99263;-70
2021/06/29 03:29:29;;;;;;;1999.90;999.90;;;;;;;16.81;48.39;100739.78;4822685;29;97303;-69
2021/06/29 03:31:56;;;;;;;1999.90;999.90;;;;;;;16.79;48.71;100729.03;4822896;29;97121;-70
2021/06/29 03:34:25;;;;;;;1999.90;999.90;;;;;;;16.76;48.73;100728.16;4822567;29;98749;-71
2021/06/29 03:36:54;;;;;;;1999.90;999.90;;;;;;;16.79;48.89;100710.22;4821934;29;97814;-69
2021/06/29 03:39:22;;;;;;;1999.90;999.90;;;;;;;16.73;48.84;100701.28;4822025;29;98055;-69
2021/06/29 03:41:51;;;;;;;1999.90;999.90;;;;;;;16.74;48.87;100708.47;4822391;29;96778;-68
2021/06/29 03:44:19;;;;;;;1999.90;999.90;;;;;;;16.76;48.55;100715.59;4821977;29;100100;-68
2021/06/29 03:46:46;;;;;;;1999.90;999.90;;;;;;;16.80;48.74;100721.84;4820768;29;97709;-69
2021/06/29 03:49:14;;;;;;;1999.90;999.90;;;;;;;16.77;48.96;100719.19;4819455;29;97101;-70
2021/06/29 03:51:42;;;;;;;1999.90;999.90;;;;;;;16.78;49.21;100719.19;4815680;29;97426;-69
2021/06/29 03:54:11;;;;;;;1999.90;999.90;;;;;;;16.82;48.80;100728.13;4820788;29;98367;-68
2021/06/29 03:56:39;;;;;;;1999.90;999.90;;;;;;;16.83;48.98;100724.53;4822884;29;100374;-69
2021/06/29 03:59:08;;;;;;;1999.90;999.90;;;;;;;16.88;49.02;100720.03;4820880;29;96909;-70
2021/06/29 04:01:37;;;;;;;1999.90;999.90;;;;;;;16.91;49.08;100726.28;4816424;29;96889;-69
2021/06/29 04:04:06;;;;;;;1999.90;999.90;;;;;;;16.87;49.44;100720.94;4818918;29;98766;-68
2021/06/29 04:06:35;;;;;;;1999.90;999.90;;;;;;;16.87;49.29;100729.00;4818155;29;99009;-70
2021/06/29 04:09:05;;;;;;;1999.90;999.90;;;;;;;16.86;49.42;100721.81;4805341;29;98049;-67
2021/06/29 04:11:34;;;;;;;1999.90;999.90;;;;;;;16.88;49.57;100717.34;4822536;29;97684;-69
2021/06/29 04:14:02;;;;;;;1999.90;999.90;;;;;;;16.92;49.47;100716.44;4823059;29;97715;-71
2021/06/29 04:16:30;;;;;;;1999.90;999.90;;;;;;;17.42;50.28;100710.75;4816205;29;97992;-69
2021/06/29 04:18:58;;;;;;;1999.90;999.90;;;;;;;17.25;50.33;100708.13;4821120;29;97366;-69
2021/06/29 04:21:26;;;;;;;1999.90;999.90;;;;;;;17.67;50.23;100709.63;4819206;29;97427;-69
2021/06/29 04:23:54;;;;;;;1999.90;999.90;;;;;;;17.86;50.42;100704.03;4820312;29;98863;-69
2021/06/29 04:26:21;;;;;;;1999.90;999.90;;;;;;;17.65;50.51;100708.72;4820858;29;98230;-70
2021/06/29 04:28:51;;;;;;;1999.90;999.90;;;;;;;17.63;50.20;100710.53;4820844;29;97355;-68
2021/06/29 04:31:19;;;;;;;1999.90;999.90;;;;;;;17.64;50.13;100705.13;4835798;28;98366;-70
2021/06/29 04:33:46;;;;;;;1999.90;999.90;;;;;;;17.67;49.92;100707.81;4821452;29;97920;-69
2021/06/29 04:36:14;;;;;;;1999.90;999.90;;;;;;;17.69;49.81;100703.28;4816305;29;99385;-70
2021/06/29 04:38:42;;;;;;;1999.90;999.90;;;;;;;17.71;49.74;100714.06;4817118;29;97143;-71
2021/06/29 04:41:10;;;;;;;1999.90;999.90;;;;;;;17.63;49.75;100703.38;4823541;29;97535;-70
2021/06/29 04:43:40;;;;;;;1999.90;999.90;;;;;;;17.64;49.67;100709.63;4807440;29;100330;-70
2021/06/29 04:46:09;;;;;;;1999.90;999.90;;;;;;;17.57;49.74;100722.25;4837552;28;99243;-70
2021/06/29 04:48:38;;;;;;;1999.90;999.90;;;;;;;17.52;49.50;100721.41;4823303;29;97713;-70
2021/06/29 04:51:07;;;;;;;1999.90;999.90;;;;;;;17.47;49.96;100719.66;4808297;29;96947;-70
2021/06/29 04:53:35;;;;;;;1999.90;999.90;;;;;;;17.37;50.04;100707.13;4820966;29;99254;-70
2021/06/29 04:56:03;;;;;;;1999.90;999.90;;;;;;;17.74;49.94;100709.53;4817546;29;97835;-70
2021/06/29 04:58:31;;;;;;;1999.90;999.90;;;;;;;17.85;49.94;100712.13;4801216;29;98103;-72
2021/06/29 05:00:59;;;;;;;1999.90;999.90;;;;;;;17.91;49.99;100706.69;4820729;29;97410;-72
2021/06/29 05:03:28;;;;;;;1999.90;999.90;;;;;;;17.56;50.45;100715.09;4835841;28;99657;-72
2021/06/29 05:05:56;;;;;;;1999.90;999.90;;;;;;;17.45;50.63;100705.31;4821076;29;100368;-73
2021/06/29 05:08:23;;;;;;;1999.90;999.90;;;;;;;17.82;50.29;100710.34;4820700;29;97609;-73
2021/06/29 05:10:51;;;;;;;1999.90;999.90;;;;;;;17.58;50.45;100713.25;4818961;29;97475;-73
2021/06/29 05:13:19;;;;;;;1999.90;999.90;;;;;;;17.53;50.54;100709.72;4806427;29;98623;-73
2021/06/29 05:15:47;;;;;;;1999.90;999.90;;;;;;;17.52;50.49;100712.44;4838650;28;98216;-72
2021/06/29 05:18:16;;;;;;;1999.90;999.90;;;;;;;17.52;50.31;100724.09;4821817;29;97855;-70
2021/06/29 05:20:45;;;;;;;1999.90;999.90;;;;;;;17.85;50.00;100717.50;4821058;29;97919;-70
2021/06/29 05:23:13;;;;;;;1999.90;999.90;;;;;;;17.62;50.31;100715.03;4824303;29;99631;-70
2021/06/29 05:25:41;;;;;;;1999.90;999.90;;;;;;;17.57;50.35;100716.88;4823701;29;97717;-71
2021/06/29 05:28:08;;;;;;;1999.90;999.90;;;;;;;17.97;49.75;100712.00;4822744;29;96903;-71
2021/06/29 05:30:36;;;;;;;1999.90;999.90;;;;;;;17.76;50.25;100715.81;4824419;29;97539;-71
2021/06/29 05:33:04;;;;;;;1999.90;999.90;;;;;;;18.15;49.59;100724.44;4821257;29;99044;-70
2021/06/29 05:35:32;;;;;;;1999.90;999.90;;;;;;;18.28;49.32;100721.56;4808404;29;99086;-70
2021/06/29 05:38:01;;;;;;;1999.90;999.90;;;;;;;18.01;49.86;100730.81;4823151;29;96911;-71
2021/06/29 05:40:29;;;;;;;1999.90;999.90;;;;;;;17.85;50.13;100721.09;4824188;29;97728;-71
2021/06/29 05:42:57;;;;;;;1999.90;999.90;;;;;;;17.80;50.12;100731.00;4825102;29;98058;-70
2021/06/29 05:45:25;;;;;;;1999.90;999.90;;;;;;;18.18;49.16;100727.06;4822819;29;97811;-71
2021/06/29 05:47:53;;;;;;;1999.90;999.90;;;;;;;17.75;49.99;100727.47;4821980;29;97044;-70
2021/06/29 05:50:22;;;;;;;1999.90;999.90;;;;;;;17.58;50.15;100723.16;4823577;29;97140;-71
2021/06/29 05:52:50;;;;;;;1999.90;999.90;;;;;;;17.51;50.40;100724.13;4823647;29;97666;-70
2021/06/29 05:55:19;;;;;;;1999.90;999.90;;;;;;;17.38;50.38;100731.41;4823752;29;98803;-71
2021/06/29 05:57:52;;;;;;;1999.90;999.90;;;;;;;17.32;50.54;100734.09;4823457;29;97977;-71
2021/06/29 06:00:20;;;;;;;1999.90;999.90;;;;;;;17.70;49.93;100728.41;4824515;29;97896;-71
2021/06/29 06:02:48;;;;;;;1999.90;999.90;;;;;;;17.81;50.08;100724.72;4821702;29;97964;-70
2021/06/29 06:05:16;;;;;;;1999.90;999.90;;;;;;;17.90;49.91;100727.31;4820784;29;98396;-70
2021/06/29 06:07:44;;;;;;;1999.90;999.90;;;;;;;18.00;49.51;100722.75;4822057;29;97138;-71
2021/06/29 06:10:13;;;;;;;1999.90;999.90;;;;;;;18.11;49.57;100722.66;4823415;29;97321;-71
2021/06/29 06:12:43;;;;;;;1999.90;999.90;;;;;;;17.80;50.17;100725.63;4824554;29;99635;-71
2021/06/29 06:15:11;;;;;;;551.83;286.40;;;;;;;17.71;50.17;100725.69;4820380;29;100758;-70
2021/06/29 06:17:39;;;;;;;576.42;520.83;;;;;;;18.09;49.75;100730.78;4807284;29;98249;-70
2021/06/29 06:20:07;;;;;;;693.22;648.25;;;;;;;18.34;49.33;100729.59;4821846;29;98049;-70
2021/06/29 06:22:35;;;;;;;1522.03;770.42;;;;;;;18.06;49.54;100738.00;4822882;29;99527;-70
2021/06/29 06:25:04;;;;;;;433.58;412.40;;;;;;;17.99;49.59;100724.53;4820247;29;98847;-71
2021/06/29 06:27:32;;;;;;;286.77;266.58;;;;;;;17.95;49.60;100740.72;4806042;29;98828;-68
2021/06/29 06:30:01;;;;;;;1999.90;999.90;;;;;;;17.90;49.54;100748.88;4824267;29;97254;-68
2021/06/29 06:32:29;;;;;;;1999.90;999.90;;;;;;;17.88;49.57;100745.28;4822512;29;98190;-68
2021/06/29 06:34:57;;;;;;;1999.90;999.90;;;;;;;17.79;49.48;100745.38;4821137;29;98776;-69
2021/06/29 06:37:25;;;;;;;1999.90;999.90;;;;;;;17.73;49.82;100755.31;4821422;29;97268;-70
2021/06/29 06:39:53;;;;;;;1999.90;999.90;;;;;;;17.71;49.92;100751.75;4822763;29;97809;-67
2021/06/29 06:42:21;;;;;;;1999.90;999.90;;;;;;;17.70;49.93;100749.94;4824964;29;97585;-68
2021/06/29 06:44:53;;;;;;;1999.90;999.90;;;;;;;17.71;49.63;100749.94;4822760;29;101165;-69
2021/06/29 06:47:22;;;;;;;1999.90;999.90;;;;;;;17.74;49.63;100749.03;4825046;29;97555;-69
2021/06/29 06:49:50;;;;;;;1999.90;999.90;;;;;;;17.76;49.56;100766.94;4822577;29;97676;-68
2021/06/29 06:52:18;;;;;;;1999.90;999.90;;;;;;;18.18;48.91;100772.88;4812328;29;98599;-71
2021/06/29 06:54:46;;;;;;;1999.90;999.90;;;;;;;18.33;49.10;100765.50;4821950;29;97600;-71
2021/06/29 06:57:14;;;;;;;1999.90;999.90;;;;;;;18.43;48.77;100766.28;4820471;29;97956;-70
2021/06/29 06:59:41;;;;;;;1999.90;999.90;;;;;;;18.50;48.31;100757.22;4821241;29;96847;-71
2021/06/29 07:02:10;;;;;;;1999.90;999.90;;;;;;;18.20;49.24;100757.59;4822723;29;98350;-68
2021/06/29 07:04:39;;;;;;;1999.90;999.90;;;;;;;18.14;49.20;100752.25;4822371;29;99385;-69
2021/06/29 07:07:06;;;;;;;1999.90;999.90;;;;;;;18.53;48.63;100751.81;4821022;29;97218;-71
2021/06/29 07:09:34;;;;;;;1999.90;999.90;;;;;;;18.67;48.47;100744.44;4821407;29;97602;-71
2021/06/29 07:12:02;;;;;;;1999.90;999.90;;;;;;;18.80;48.13;100752.41;4822387;29;97812;-70
2021/06/29 07:14:30;;;;;;;1999.90;999.90;;;;;;;18.84;47.95;100748.72;4820403;29;98089;-69
2021/06/29 07:16:58;;;;;;;1999.90;999.90;;;;;;;18.93;47.68;100734.25;4820249;29;97185;-70
2021/06/29 07:19:26;;;;;;;1999.90;999.90;;;;;;;19.00;47.29;100727.84;4807356;29;97387;-70
2021/06/29 07:21:55;;;;;;;1999.90;999.90;;;;;;;19.08;47.17;100720.53;4821172;29;98910;-70
2021/06/29 07:24:23;;;;;;;1999.90;999.90;;;;;;;18.77;47.79;100724.56;4825186;29;99259;-71
2021/06/29 07:26:51;;;;;;;1999.90;999.90;;;;;;;18.65;47.77;100735.50;4821269;29;96964;-72
2021/06/29 07:29:19;;;;;;;1999.90;999.90;;;;;;;18.59;48.03;100732.84;4824313;29;97204;-70
2021/06/29 07:31:47;;;;;;;1999.90;999.90;;;;;;;18.97;47.06;100727.88;4821162;29;99177;-69
2021/06/29 07:34:15;;;;;;;1999.90;999.90;;;;;;;19.12;46.64;100729.47;4804449;29;98379;-71
2021/06/29 07:36:43;;;;;;;1999.90;999.90;;;;;;;19.20;46.70;100736.56;4808861;29;97369;-71
2021/06/29 07:39:12;;;;;;;1999.90;999.90;;;;;;;19.29;46.69;100741.81;4837960;28;97023;-70
2021/06/29 07:41:40;;;;;;;1999.90;999.90;;;;;;;19.36;46.99;100737.22;4834202;28;99064;-69
2021/06/29 07:44:09;;;;;;;1999.90;999.90;;;;;;;19.43;46.95;100745.22;4820082;29;99503;-69
2021/06/29 07:46:36;;;;;;;1999.90;999.90;;;;;;;19.48;46.65;100737.91;4818833;29;98093;-69
2021/06/29 07:49:05;;;;;;;1999.90;999.90;;;;;;;19.53;46.61;100743.25;4820248;29;98048;-69
2021/06/29 07:51:33;;;;;;;1999.90;999.90;;;;;;;19.58;46.46;100744.97;4822128;29;97816;-70
2021/06/29 07:54:01;;;;;;;1999.90;999.90;;;;;;;19.60;45.96;100751.25;4822532;29;99359;-71
2021/06/29 07:56:31;;;;;;;1999.90;999.90;;;;;;;19.70;45.63;100750.16;4819021;29;97463;-70
2021/06/29 07:58:58;;;;;;;1999.90;999.90;;;;;;;19.79;46.24;100754.53;4805343;29;98073;-70
2021/06/29 08:01:26;;;;;;;1999.90;999.90;;;;;;;19.83;46.04;100750.81;4821220;29;98020;-69
2021/06/29 08:03:54;;;;;;;1999.90;999.90;;;;;;;19.83;45.80;100757.13;4820931;29;99609;-69
2021/06/29 08:06:22;;;;;;;1999.90;999.90;;;;;;;19.82;45.69;100752.66;4834242;28;98764;-69
2021/06/29 08:08:50;;;;;;;1999.90;999.90;;;;;;;19.82;45.42;100746.38;4820446;29;98033;-70
2021/06/29 08:11:18;;;;;;;1999.90;999.90;;;;;;;19.85;45.60;100752.59;4825131;29;97818;-70
2021/06/29 08:13:47;;;;;;;1999.90;999.90;;;;;;;19.86;46.08;100759.75;4825269;29;97976;-69
2021/06/29 08:16:15;;;;;;;1999.90;999.90;;;;;;;19.89;46.30;100772.34;4823696;29;97335;-69
2021/06/29 08:18:43;;;;;;;1999.90;999.90;;;;;;;19.91;46.22;100776.81;4808676;29;97474;-69
2021/06/29 08:21:11;;;;;;;1999.90;999.90;;;;;;;19.94;46.07;100771.38;4824597;29;97795;-69
2021/06/29 08:23:39;;;;;;;1999.90;999.90;;;;;;;19.97;45.83;100776.72;4823667;29;99354;-69
2021/06/29 08:26:07;;;;;;;1999.90;999.90;;;;;;;19.97;45.78;100765.03;4822767;29;97430;-69
2021/06/29 08:28:36;;;;;;;1999.90;999.90;;;;;;;19.63;46.45;100758.38;4825839;29;98380;-69
2021/06/29 08:31:06;;;;;;;1999.90;999.90;;;;;;;19.48;46.99;100762.22;4802406;29;97820;-70
2021/06/29 08:33:34;;;;;;;1999.90;999.90;;;;;;;19.72;46.11;100761.81;4822059;29;100354;-70
2021/06/29 08:36:03;;;;;;;1999.90;999.90;;;;;;;19.78;45.59;100759.03;4820628;29;98050;-69
2021/06/29 08:38:31;;;;;;;1999.90;999.90;;;;;;;19.81;45.49;100756.25;4821138;29;97232;-69
2021/06/29 08:40:59;;;;;;;1999.90;999.90;;;;;;;19.86;46.24;100753.50;4825331;29;99403;-69
2021/06/29 08:43:27;;;;;;;1999.90;999.90;;;;;;;19.90;45.82;100749.84;4822564;29;100953;-70
2021/06/29 08:45:56;;;;;;;1999.90;999.90;;;;;;;19.53;46.63;100757.66;4826094;29;97561;-70
2021/06/29 08:48:25;;;;;;;1999.90;999.90;;;;;;;19.73;45.83;100751.91;4823742;29;96991;-70
2021/06/29 08:50:53;;;;;;;1999.90;999.90;;;;;;;19.76;46.24;100750.06;4823371;29;99761;-70
2021/06/29 08:53:21;;;;;;;1999.90;999.90;;;;;;;19.76;45.95;100744.66;4824392;29;99198;-71
2021/06/29 08:55:49;;;;;;;1999.90;999.90;;;;;;;19.78;45.88;100745.53;4824472;29;99518;-70
2021/06/29 08:58:21;;;;;;;1999.90;999.90;;;;;;;19.77;45.94;100746.41;4822268;29;98388;-70
2021/06/29 09:00:49;;;;;;;1999.90;999.90;;;;;;;19.77;46.08;100735.63;4821702;29;100483;-70
2021/06/29 09:03:17;;;;;;;1999.90;999.90;;;;;;;19.81;46.44;100731.06;4822893;29;99362;-69
2021/06/29 09:05:48;;;;;;;1999.90;999.90;;;;;;;19.87;46.75;100723.75;4823343;29;97374;-69
2021/06/29 09:08:19;;;;;;;1999.90;999.90;;;;;;;19.92;46.38;100739.88;4823479;29;97196;-69
2021/06/29 09:11:06;;;;;;;1999.90;999.90;;;;;;;19.96;46.29;100741.63;4824504;29;97716;-69
2021/06/29 09:13:34;;;;;;;1999.90;999.90;;;;;;;19.99;46.43;100738.91;4824388;29;97746;-69
2021/06/29 09:16:03;;;;;;;1999.90;999.90;;;;;;;20.04;46.73;100744.19;4837046;28;97795;-70
2021/06/29 09:18:32;;;;;;;1999.90;999.90;;;;;;;20.09;46.46;100747.69;4823882;29;98078;-70
2021/06/29 09:21:03;;;;;;;1999.90;999.90;;;;;;;20.12;45.98;100745.81;4823095;29;98790;-70
2021/06/29 09:23:32;;;;;;;1999.90;999.90;;;;;;;20.14;45.91;100741.28;4823204;29;97749;-68
2021/06/29 09:26:02;;;;;;;1999.90;999.90;;;;;;;20.16;45.88;100739.44;4821958;29;97465;-69
2021/06/29 09:28:31;;;;;;;1999.90;999.90;;;;;;;20.19;46.20;100743.91;4822833;29;97836;-70
2021/06/29 09:31:01;;;;;;;1999.90;999.90;;;;;;;20.21;46.14;100742.09;4807707;29;99568;-70
2021/06/29 09:33:32;;;;;;;1999.90;999.90;;;;;;;20.23;46.53;100740.25;4822196;29;97919;-70
2021/06/29 09:36:02;;;;;;;1999.90;999.90;;;;;;;20.25;46.18;100739.28;4836552;28;98534;-69
2021/06/29 09:38:32;;;;;;;1999.90;999.90;;;;;;;20.24;46.23;100736.59;4837016;28;98486;-70
2021/06/29 09:41:03;;;;;;;1999.90;999.90;;;;;;;19.85;46.72;100739.09;4824514;29;97698;-69
2021/06/29 09:43:34;;;;;;;1999.90;999.90;;;;;;;19.69;47.10;100737.59;4824603;29;98838;-70
2021/06/29 09:46:03;;;;;;;1999.90;999.90;;;;;;;19.60;47.48;100736.84;4822989;29;98141;-70
2021/06/29 09:48:33;;;;;;;1999.90;999.90;;;;;;;19.54;47.02;100739.63;4825281;29;98332;-70
2021/06/29 09:51:07;;;;;;;1999.90;999.90;;;;;;;19.83;47.25;100735.53;4820519;29;98117;-70
2021/06/29 09:53:42;;;;;;;1999.90;999.90;;;;;;;19.91;47.17;100735.41;4821448;29;97864;-69
2021/06/29 09:56:12;;;;;;;1999.90;999.90;;;;;;;19.96;47.03;100737.13;4822654;29;97971;-70
2021/06/29 09:58:42;;;;;;;1999.90;999.90;;;;;;;20.01;46.96;100736.16;4822252;29;98289;-70
2021/06/29 10:01:15;;;;;;;1999.90;999.90;;;;;;;20.03;46.99;100737.03;4823362;29;98824;-70
2021/06/29 10:03:43;;;;;;;1999.90;999.90;;;;;;;20.05;47.24;100729.78;4821706;29;100654;-70
2021/06/29 10:06:14;;;;;;;1999.90;999.90;;;;;;;19.70;47.45;100727.69;4823733;29;97061;-70
2021/06/29 10:08:43;;;;;;;1999.90;999.90;;;;;;;19.91;47.22;100727.28;4824715;29;98172;-69
2021/06/29 10:11:20;;;;;;;1999.90;999.90;;;;;;;19.96;47.14;100728.13;4821617;29;99564;-70
2021/06/29 10:13:51;;;;;;;1999.90;999.90;;;;;;;19.98;47.48;100727.19;4821761;29;98755;-70
2021/06/29 10:16:22;;;;;;;1999.90;999.90;;;;;;;20.03;47.54;100729.78;4822365;29;97519;-71
2021/06/29 10:19:02;;;;;;;1999.90;999.90;;;;;;;20.04;47.74;100723.47;4823927;29;97839;-71
2021/06/29 10:21:33;;;;;;;1999.90;999.90;;;;;;;20.07;47.43;100731.53;4819671;29;99869;-70
2021/06/29 10:24:02;;;;;;;1999.90;999.90;;;;;;;20.04;47.51;100719.88;4821868;29;97787;-70
2021/06/29 10:26:32;;;;;;;1999.90;999.90;;;;;;;20.11;48.01;100718.84;4821472;29;97343;-70
2021/06/29 10:29:00;;;;;;;1999.90;999.90;;;;;;;20.12;47.60;100713.41;4838557;28;97172;-70
2021/06/29 10:31:30;;;;;;;1999.90;999.90;;;;;;;20.08;47.80;100706.31;4818858;29;99346;-69
2021/06/29 10:34:00;;;;;;;1999.90;999.90;;;;;;;20.17;47.92;100707.94;4822238;29;97729;-70
2021/06/29 10:36:29;;;;;;;1999.90;999.90;;;;;;;20.17;47.68;100707.94;4821443;29;98846;-70
2021/06/29 10:38:59;;;;;;;1999.90;999.90;;;;;;;20.17;47.77;100714.22;4819637;29;97213;-70
2021/06/29 10:41:33;;;;;;;1999.90;999.90;;;;;;;20.14;47.58;100705.28;4822618;29;100694;-70
2021/06/29 10:44:01;;;;;;;1999.90;999.90;;;;;;;20.11;47.27;100708.94;4822204;29;97733;-70
2021/06/29 10:46:40;;;;;;;1999.90;999.90;;;;;;;19.97;47.81;100703.78;4804989;29;98107;-70
2021/06/29 10:49:36;;;;;;;1999.90;999.90;;;;;;;20.03;47.35;100710.00;4823414;29;97351;-71
2021/06/29 10:52:09;;;;;;;1999.90;999.90;;;;;;;20.01;47.87;100709.16;4807332;28;98916;-70
2021/06/29 10:54:46;;;;;;;1999.90;999.90;;;;;;;19.93;47.57;100714.69;4821715;29;98047;-71
2021/06/29 10:57:16;;;;;;;1999.90;999.90;;;;;;;19.92;47.78;100712.84;4821408;29;97072;-70
2021/06/29 10:59:48;;;;;;;1999.90;999.90;;;;;;;19.91;47.73;100711.97;4825726;28;96955;-70
2021/06/29 11:02:30;;;;;;;1999.90;999.90;;;;;;;19.91;48.30;100703.88;4821747;29;97877;-70